Time;durP1;ratioP1;P1;durP2;ratioP2;P2;SDS_P1;SDS_P2;PMS_P1;PMS_P2;Temp;Humidity;BMP_temperature;BMP_pressure;BME280_temperature;BME280_humidity;BME280_pressure;Samples;Min_cycle;Max_cycle;Signal;HPM_P1;HPM_P2
2022/06/05 00:01:30;;;;;;;28.95;23.05;;;;;;;22.12;50.96;93718.28;5033273;28;20094;-88
2022/06/05 00:04:17;;;;;;;28.95;20.98;;;;;;;22.10;50.79;93716.03;5032704;28;20120;-88
2022/06/05 00:06:51;;;;;;;25.27;19.08;;;;;;;22.13;50.80;93719.75;5039243;28;20128;-88
2022/06/05 00:09:47;;;;;;;25.27;20.85;;;;;;;22.09;51.06;93719.31;5033188;28;20080;-88
2022/06/05 00:12:15;;;;;;;28.77;22.08;;;;;;;22.12;50.93;93726.53;5049562;28;20068;-89
2022/06/05 00:14:43;;;;;;;26.17;21.83;;;;;;;22.12;50.98;93718.28;5051927;28;20434;-88
2022/06/05 00:17:13;;;;;;;26.95;21.45;;;;;;;22.10;50.94;93712.56;5035495;28;20024;-89
2022/06/05 00:19:40;;;;;;;28.58;21.90;;;;;;;22.08;50.96;93720.63;5018090;28;20044;-88
2022/06/05 00:22:06;;;;;;;24.27;20.00;;;;;;;22.11;50.77;93720.28;4999086;28;20085;-89
2022/06/05 00:24:33;;;;;;;25.80;18.88;;;;;;;22.09;50.99;93694.53;5019498;28;20036;-89
2022/06/05 00:27:05;;;;;;;25.80;21.83;;;;;;;22.07;50.87;93697.84;5036332;28;20064;-88
2022/06/05 00:29:49;;;;;;;25.30;20.63;;;;;;;22.09;50.94;93695.28;5050274;28;20082;-88
2022/06/05 00:32:32;;;;;;;28.77;22.08;;;;;;;22.08;51.12;93684.81;5034686;28;20048;-89
2022/06/05 00:34:57;;;;;;;25.77;20.35;;;;;;;22.08;51.01;93680.06;5051286;28;20048;-89
2022/06/05 00:37:52;;;;;;;21.73;18.15;;;;;;;22.09;50.75;93680.78;5035420;28;20105;-88
2022/06/05 00:40:43;;;;;;;24.40;19.48;;;;;;;22.07;50.86;93684.09;5031381;28;20044;-89
2022/06/05 00:43:10;;;;;;;22.13;18.58;;;;;;;22.09;50.98;93683.53;5039802;28;20047;-88
2022/06/05 00:45:36;;;;;;;25.73;19.13;;;;;;;22.07;51.00;93686.09;5035554;28;20082;-89
2022/06/05 00:48:01;;;;;;;26.15;20.05;;;;;;;22.05;50.93;93678.38;5017608;28;20040;-89
2022/06/05 00:50:29;;;;;;;26.10;20.42;;;;;;;22.06;50.79;93679.84;5034672;28;20044;-89
2022/06/05 00:52:56;;;;;;;26.55;20.33;;;;;;;22.07;50.94;93681.34;5026732;28;20033;-90
2022/06/05 00:55:27;;;;;;;26.02;20.77;;;;;;;22.07;51.15;93683.34;5040609;28;21517;-89
2022/06/05 00:57:53;;;;;;;24.85;20.10;;;;;;;22.07;50.98;93686.09;4999680;28;20033;-88
2022/06/05 01:00:22;;;;;;;23.90;18.95;;;;;;;22.05;50.89;93681.13;5034083;28;20081;-88
2022/06/05 01:02:49;;;;;;;26.63;20.33;;;;;;;22.06;50.95;93687.38;4989938;28;20560;-88
2022/06/05 01:05:15;;;;;;;24.77;20.20;;;;;;;22.08;50.89;93684.81;4974814;28;20034;-88
2022/06/05 01:07:40;;;;;;;23.83;19.80;;;;;;;22.05;50.99;93683.13;4982466;28;20123;-88
2022/06/05 01:10:06;;;;;;;26.45;20.73;;;;;;;22.05;50.82;93678.38;4989887;28;20535;-89
2022/06/05 01:12:40;;;;;;;26.05;20.23;;;;;;;22.06;50.83;93677.09;4974946;28;20108;-89
2022/06/05 01:15:13;;;;;;;28.13;22.63;;;;;;;22.04;50.94;93665.88;4991139;28;20037;-89
2022/06/05 01:17:50;;;;;;;22.95;18.85;;;;;;;22.04;51.00;93676.13;4979565;28;20349;-88
2022/06/05 01:20:30;;;;;;;25.65;20.52;;;;;;;22.03;51.04;93672.66;5004472;28;20064;-89
2022/06/05 01:23:08;;;;;;;23.05;18.50;;;;;;;22.04;51.07;93671.38;4958852;28;20134;-88
2022/06/05 01:25:41;;;;;;;25.45;20.38;;;;;;;22.05;50.88;93675.63;4975312;28;20541;-89
2022/06/05 01:28:11;;;;;;;23.52;19.42;;;;;;;22.03;50.96;93675.41;4974695;28;20057;-88
2022/06/05 01:30:47;;;;;;;25.75;20.63;;;;;;;22.03;50.88;93667.13;4955659;28;20045;-88
2022/06/05 01:33:23;;;;;;;26.05;19.67;;;;;;;22.02;50.86;93662.16;4971705;28;20335;-89
2022/06/05 01:35:56;;;;;;;24.13;18.90;;;;;;;22.03;51.20;93663.63;4998901;28;20029;-88
2022/06/05 01:38:29;;;;;;;24.63;19.60;;;;;;;22.01;50.97;93668.94;5014605;28;20102;-88
2022/06/05 01:40:55;;;;;;;27.38;21.00;;;;;;;22.00;51.02;93668.19;5015984;28;20037;-89
2022/06/05 01:43:25;;;;;;;22.50;17.98;;;;;;;22.02;51.11;93670.41;5004648;28;20407;-89
2022/06/05 01:45:56;;;;;;;24.80;19.48;;;;;;;22.03;51.04;93663.63;5034280;28;20033;-89
2022/06/05 01:48:27;;;;;;;26.02;20.80;;;;;;;22.02;51.00;93653.91;5034374;28;20040;-89
2022/06/05 01:50:56;;;;;;;24.27;18.83;;;;;;;22.02;50.93;93657.41;5034292;28;20071;-88
2022/06/05 01:53:24;;;;;;;26.38;20.15;;;;;;;22.01;51.09;93653.16;5034047;28;20033;-88
2022/06/05 01:55:52;;;;;;;23.08;19.55;;;;;;;22.01;51.09;93649.66;5033795;28;20633;-88
2022/06/05 01:58:19;;;;;;;26.15;20.08;;;;;;;22.02;50.97;93654.66;5028913;28;20136;-88
2022/06/05 02:00:53;;;;;;;24.73;19.73;;;;;;;22.01;50.85;93646.91;5012290;28;20309;-89
2022/06/05 02:03:23;;;;;;;24.92;19.17;;;;;;;22.01;50.98;93644.91;5033632;28;20047;-88
2022/06/05 02:06:04;;;;;;;27.50;22.35;;;;;;;22.00;50.93;93642.66;5034206;28;20451;-88
2022/06/05 02:08:37;;;;;;;26.08;20.58;;;;;;;22.00;50.96;93635.16;5029669;28;20029;-89
2022/06/05 02:11:17;;;;;;;26.35;20.42;;;;;;;21.99;50.94;93636.41;5030630;28;20029;-87
2022/06/05 02:13:43;;;;;;;26.77;21.00;;;;;;;21.99;51.01;93625.38;5030308;28;20045;-89
2022/06/05 02:16:08;;;;;;;30.88;22.50;;;;;;;21.97;51.02;93627.94;5046188;28;20037;-89
2022/06/05 02:18:34;;;;;;;24.60;19.65;;;;;;;21.97;50.95;93625.16;5006305;28;20491;-88
2022/06/05 02:21:00;;;;;;;25.38;19.40;;;;;;;21.97;51.06;93622.41;5028560;28;20033;-88
2022/06/05 02:23:27;;;;;;;24.83;19.67;;;;;;;21.98;51.19;93634.16;5046571;28;20033;-88
2022/06/05 02:25:53;;;;;;;24.88;19.13;;;;;;;21.99;50.89;93635.66;5030522;28;20037;-88
2022/06/05 02:28:21;;;;;;;25.88;19.60;;;;;;;21.98;50.99;93642.44;5029883;28;20518;-89
2022/06/05 02:31:04;;;;;;;26.08;19.90;;;;;;;21.98;51.06;93636.91;5046456;28;20033;-88
2022/06/05 02:33:49;;;;;;;26.45;19.10;;;;;;;21.96;50.75;93629.19;5046351;28;20033;-88
2022/06/05 02:36:23;;;;;;;26.00;19.92;;;;;;;21.96;51.13;93637.44;5046341;28;20120;-89
2022/06/05 02:39:10;;;;;;;23.88;19.15;;;;;;;21.96;50.88;93639.47;5030829;28;20036;-88
2022/06/05 02:41:42;;;;;;;23.55;19.52;;;;;;;21.96;51.01;93625.69;5031798;28;20063;-88
2022/06/05 02:47:01;;;;;;;26.50;19.83;;;;;;;21.97;51.06;93627.19;5067616;28;20071;-88
2022/06/05 02:49:30;;;;;;;23.88;18.30;;;;;;;21.96;50.79;93626.44;5033078;28;20166;-89
2022/06/05 02:51:56;;;;;;;28.42;21.35;;;;;;;21.96;50.99;93622.94;5033356;28;20051;-89
2022/06/05 02:54:25;;;;;;;24.10;18.20;;;;;;;21.96;51.03;93622.94;5032603;28;20041;-88
2022/06/05 02:56:50;;;;;;;27.00;21.13;;;;;;;21.95;50.97;93627.72;5016223;28;20135;-89
2022/06/05 02:59:16;;;;;;;25.80;19.42;;;;;;;21.94;50.97;93626.22;5019976;28;20040;-89
2022/06/05 03:04:25;;;;;;;27.77;20.80;;;;;;;21.95;50.89;93619.44;5037823;28;20402;-89
2022/06/05 03:06:51;;;;;;;24.50;19.42;;;;;;;21.96;51.06;93634.69;5065555;28;20036;-89
2022/06/05 03:09:16;;;;;;;24.40;18.20;;;;;;;21.97;50.94;93621.69;5013568;28;20033;-88
2022/06/05 03:11:44;;;;;;;26.80;19.02;;;;;;;21.95;50.96;93616.69;5029321;28;20044;-88
2022/06/05 03:14:10;;;;;;;23.45;18.10;;;;;;;21.96;51.06;93622.94;5015155;28;20094;-89
2022/06/05 03:16:35;;;;;;;25.20;19.08;;;;;;;21.94;50.85;93612.47;5032525;28;20040;-88
2022/06/05 03:19:01;;;;;;;23.88;19.30;;;;;;;21.95;50.89;93618.72;5020116;28;20037;-89
2022/06/05 03:21:30;;;;;;;24.77;18.92;;;;;;;21.96;50.75;93617.44;5013009;28;20369;-88
2022/06/05 03:23:56;;;;;;;26.55;19.88;;;;;;;21.94;50.82;93614.47;5021483;28;20056;-88
2022/06/05 03:26:22;;;;;;;23.85;19.63;;;;;;;21.94;50.88;93612.47;5015855;28;22845;-89
2022/06/05 03:28:47;;;;;;;25.15;18.40;;;;;;;21.94;50.95;93609.72;5036022;28;20531;-89
2022/06/05 03:31:13;;;;;;;25.08;19.08;;;;;;;21.94;50.64;93606.22;5035484;28;20094;-88
2022/06/05 03:33:38;;;;;;;21.58;16.92;;;;;;;21.94;51.24;93606.97;5035515;28;20067;-89
2022/06/05 03:36:09;;;;;;;24.38;19.20;;;;;;;21.95;51.06;93605.69;5019809;28;20471;-88
2022/06/05 03:38:35;;;;;;;23.55;18.50;;;;;;;21.95;51.00;93602.94;5035780;28;20029;-88
2022/06/05 03:41:00;;;;;;;24.30;19.02;;;;;;;21.94;50.84;93600.72;5019298;28;20041;-88
2022/06/05 03:43:25;;;;;;;26.90;19.13;;;;;;;21.93;51.15;93596.47;5036230;28;20403;-88
2022/06/05 03:45:59;;;;;;;23.33;18.35;;;;;;;21.94;50.95;93606.22;5026416;28;20513;-89
2022/06/05 03:48:25;;;;;;;22.73;17.33;;;;;;;21.92;50.83;93598.47;5039057;28;20032;-89
2022/06/05 03:50:50;;;;;;;24.08;17.98;;;;;;;21.94;50.84;93603.47;5038307;28;20044;-89
2022/06/05 03:53:16;;;;;;;25.48;20.40;;;;;;;21.93;51.08;93604.72;5021905;28;20033;-90
2022/06/05 03:55:41;;;;;;;24.30;18.40;;;;;;;21.93;50.91;93601.97;5035376;28;20044;-90
2022/06/05 03:58:07;;;;;;;28.25;20.00;;;;;;;21.92;51.00;93598.47;5021637;28;20094;-88
2022/06/05 04:00:32;;;;;;;22.50;17.20;;;;;;;21.92;51.02;93600.50;5039109;28;20113;-89
2022/06/05 04:02:58;;;;;;;23.95;17.65;;;;;;;21.92;50.82;93592.97;5038636;28;20559;-89
2022/06/05 04:05:23;;;;;;;23.38;18.30;;;;;;;21.92;50.89;93595.00;5036805;28;20037;-89
2022/06/05 04:07:48;;;;;;;24.83;18.95;;;;;;;21.92;50.85;93592.25;5035260;28;20045;-88
2022/06/05 04:10:15;;;;;;;21.75;16.73;;;;;;;21.92;50.82;93597.75;5021878;28;20029;-88
2022/06/05 04:12:40;;;;;;;22.35;18.02;;;;;;;21.92;50.86;93597.75;5035235;28;20499;-88
2022/06/05 04:15:06;;;;;;;25.02;17.98;;;;;;;21.92;51.00;93590.22;5053200;28;20053;-89
2022/06/05 04:17:32;;;;;;;20.67;16.65;;;;;;;21.91;51.10;93583.25;5035461;28;20323;-89
2022/06/05 04:19:57;;;;;;;24.42;17.52;;;;;;;21.92;50.79;93573.72;5053486;28;20055;-88
2022/06/05 04:22:22;;;;;;;22.30;17.67;;;;;;;21.90;50.86;93577.00;5021596;28;20048;-89
2022/06/05 04:24:48;;;;;;;23.48;17.52;;;;;;;21.92;51.03;93568.22;5053649;28;20094;-88
2022/06/05 04:27:14;;;;;;;25.13;18.58;;;;;;;21.89;51.10;93563.75;5038260;28;20041;-88
2022/06/05 04:29:40;;;;;;;24.45;16.75;;;;;;;21.93;50.94;93560.69;5039101;28;20040;-87
2022/06/05 04:32:06;;;;;;;23.80;17.38;;;;;;;21.90;51.03;93556.97;5033747;28;20044;-89
2022/06/05 04:34:32;;;;;;;22.88;16.63;;;;;;;21.89;50.85;93553.50;5018610;28;20519;-89
2022/06/05 04:36:58;;;;;;;23.63;18.17;;;;;;;21.90;50.72;93568.72;5017154;28;20033;-89
2022/06/05 04:39:23;;;;;;;22.60;17.13;;;;;;;21.87;50.89;93567.03;5015157;28;20044;-88
2022/06/05 04:41:49;;;;;;;23.90;18.00;;;;;;;21.90;50.85;93563.22;5032005;28;20025;-88
2022/06/05 04:44:16;;;;;;;22.55;17.88;;;;;;;21.89;50.96;93553.50;5048715;28;20041;-88
2022/06/05 04:46:42;;;;;;;23.00;17.95;;;;;;;21.88;50.94;93548.50;4999552;28;20056;-90
2022/06/05 04:49:07;;;;;;;22.85;17.55;;;;;;;21.88;51.10;93546.50;5015043;28;20415;-89
2022/06/05 04:51:34;;;;;;;26.33;18.38;;;;;;;21.89;50.86;93536.25;5032164;28;20376;-88
2022/06/05 04:54:01;;;;;;;22.05;17.13;;;;;;;21.88;50.87;93543.75;5015122;28;20044;-88
2022/06/05 04:56:27;;;;;;;22.08;15.73;;;;;;;21.87;50.79;93547.78;5021142;28;20031;-89
2022/06/05 04:58:53;;;;;;;23.27;18.15;;;;;;;21.88;50.87;93541.00;5042414;28;20041;-89
2022/06/05 05:01:20;;;;;;;24.95;18.92;;;;;;;21.91;50.90;93536.44;5015100;28;20037;-88
2022/06/05 05:03:46;;;;;;;25.30;19.45;;;;;;;21.89;50.68;93525.97;5015188;28;20043;-89
2022/06/05 05:06:12;;;;;;;23.88;17.20;;;;;;;21.89;50.90;93531.47;4998602;28;20033;-89
2022/06/05 05:08:37;;;;;;;24.90;18.58;;;;;;;21.89;51.19;93536.25;5015245;28;20116;-88
2022/06/05 05:11:03;;;;;;;24.10;17.60;;;;;;;21.88;50.80;93532.00;5022985;28;20036;-87
2022/06/05 05:13:28;;;;;;;23.60;18.63;;;;;;;21.90;50.68;93541.22;5034675;28;20041;-89
2022/06/05 05:15:55;;;;;;;20.88;16.05;;;;;;;21.92;50.65;93537.19;5018175;28;20103;-88
2022/06/05 05:18:22;;;;;;;22.52;16.67;;;;;;;21.88;50.78;93541.00;5031281;28;20037;-88
2022/06/05 05:20:47;;;;;;;20.50;15.77;;;;;;;21.92;50.72;93537.94;5051053;28;20028;-89
2022/06/05 05:23:12;;;;;;;25.17;18.08;;;;;;;21.90;50.75;93541.22;5017791;28;20040;-88
2022/06/05 05:25:38;;;;;;;23.60;17.75;;;;;;;21.89;50.55;93536.97;5030131;28;20041;-89
2022/06/05 05:28:06;;;;;;;21.30;16.23;;;;;;;21.91;50.77;93519.94;5015912;28;20051;-88
2022/06/05 05:30:32;;;;;;;21.85;16.55;;;;;;;21.91;50.73;93528.19;5035254;28;20032;-88
2022/06/05 05:32:57;;;;;;;23.25;19.30;;;;;;;21.92;50.84;93526.91;5033194;28;20257;-88
2022/06/05 05:35:23;;;;;;;24.20;17.85;;;;;;;21.93;50.32;93522.91;5034082;28;20043;-89
2022/06/05 05:37:48;;;;;;;24.52;17.75;;;;;;;21.89;50.65;93516.97;5034931;28;20040;-88
2022/06/05 05:42:58;;;;;;;23.88;16.80;;;;;;;21.94;50.69;93512.63;5039819;28;20043;-89
2022/06/05 05:45:24;;;;;;;22.85;18.17;;;;;;;21.96;50.74;93501.84;5021402;28;20407;-89
2022/06/05 05:47:49;;;;;;;22.52;16.55;;;;;;;21.96;50.58;93510.09;5014767;28;20040;-88
2022/06/05 05:50:15;;;;;;;20.77;15.25;;;;;;;21.96;50.65;93510.84;5029966;28;20044;-89
2022/06/05 05:52:41;;;;;;;19.38;15.10;;;;;;;21.97;50.42;93511.56;5014038;28;20036;-89
2022/06/05 05:55:11;;;;;;;20.58;15.50;;;;;;;21.98;50.50;93510.31;4997592;28;20061;-88
2022/06/05 05:57:36;;;;;;;22.13;16.23;;;;;;;21.98;50.34;93511.03;5026245;28;20568;-89
2022/06/05 06:00:03;;;;;;;19.35;14.48;;;;;;;21.98;50.54;93511.03;5032014;28;20037;-88
2022/06/05 06:02:28;;;;;;;19.23;15.15;;;;;;;22.00;50.42;93502.25;5013855;28;20131;-89
2022/06/05 06:04:54;;;;;;;18.92;13.80;;;;;;;22.01;50.42;93510.00;5030558;28;20480;-89
2022/06/05 06:07:19;;;;;;;19.42;15.38;;;;;;;22.01;50.30;93503.75;5030028;28;20045;-88
2022/06/05 06:09:45;;;;;;;17.67;13.57;;;;;;;22.02;50.20;93497.72;5010100;28;20032;-89
2022/06/05 06:12:10;;;;;;;18.08;13.77;;;;;;;22.05;50.26;93504.94;5031968;28;20037;-88
2022/06/05 06:14:36;;;;;;;18.23;13.35;;;;;;;22.07;50.12;93496.88;5030441;28;20033;-88
2022/06/05 06:17:02;;;;;;;16.85;13.40;;;;;;;22.07;50.31;93496.13;4997038;28;20044;-88
2022/06/05 06:19:28;;;;;;;17.67;13.57;;;;;;;22.09;50.21;93493.56;5031367;28;20364;-88
2022/06/05 06:21:53;;;;;;;18.33;13.18;;;;;;;22.12;50.23;93487.00;5033132;28;20040;-89
2022/06/05 06:24:18;;;;;;;18.55;13.45;;;;;;;22.12;50.07;93487.00;5032861;28;20059;-89
2022/06/05 06:26:44;;;;;;;16.92;13.20;;;;;;;22.13;50.28;93500.22;5045238;28;20396;-88
2022/06/05 06:29:10;;;;;;;16.80;13.90;;;;;;;22.14;49.87;93493.44;4996886;28;20499;-88
2022/06/05 06:31:35;;;;;;;15.52;12.05;;;;;;;22.17;50.02;93486.13;5027823;28;20040;-89
2022/06/05 06:34:01;;;;;;;20.10;16.02;;;;;;;22.17;49.80;93484.13;5019016;28;20068;-88
2022/06/05 06:36:27;;;;;;;14.75;12.30;;;;;;;22.18;49.92;93474.59;5029571;28;20124;-89
2022/06/05 06:38:52;;;;;;;17.38;12.77;;;;;;;22.20;49.88;93471.31;5013513;28;20116;-88
2022/06/05 06:41:18;;;;;;;14.27;11.38;;;;;;;22.22;49.84;93468.75;5013062;28;20569;-88
2022/06/05 06:43:44;;;;;;;15.23;11.88;;;;;;;22.25;49.85;93469.72;5013316;28;20500;-89
2022/06/05 06:46:09;;;;;;;16.42;12.38;;;;;;;22.26;49.50;93471.19;5013048;28;20033;-89
2022/06/05 06:48:35;;;;;;;14.07;11.45;;;;;;;22.27;49.77;93467.16;5012925;28;20037;-88
2022/06/05 06:51:00;;;;;;;14.30;11.50;;;;;;;22.27;49.57;93475.44;5029757;28;20393;-88
2022/06/05 06:53:29;;;;;;;13.13;10.40;;;;;;;22.29;49.58;93473.63;5024254;28;20060;-89
2022/06/05 06:55:54;;;;;;;15.00;11.32;;;;;;;22.31;49.66;93475.81;5008026;28;20476;-88
2022/06/05 06:58:20;;;;;;;12.43;10.15;;;;;;;22.30;49.42;93472.31;5001455;28;20029;-88
2022/06/05 07:00:45;;;;;;;13.45;11.40;;;;;;;22.31;49.80;93473.06;5007982;28;20389;-88
2022/06/05 07:03:11;;;;;;;15.40;11.48;;;;;;;22.31;49.52;93460.03;4986858;28;20120;-88
2022/06/05 07:05:36;;;;;;;15.50;12.40;;;;;;;22.31;49.75;93454.53;5005135;28;20038;-89
2022/06/05 07:08:02;;;;;;;17.27;14.10;;;;;;;22.34;49.46;93463.72;5024258;28;20045;-88
2022/06/05 07:10:27;;;;;;;19.98;14.95;;;;;;;22.33;49.45;93457.47;4988312;28;20531;-89
2022/06/05 07:12:53;;;;;;;20.15;15.98;;;;;;;22.34;49.63;93447.94;4974421;28;20042;-89
2022/06/05 07:15:19;;;;;;;18.20;14.40;;;;;;;22.36;49.44;93458.44;5007957;28;20523;-89
2022/06/05 07:17:45;;;;;;;19.27;15.43;;;;;;;22.37;49.56;93465.41;5022183;28;20070;-88
2022/06/05 07:20:10;;;;;;;15.73;12.20;;;;;;;22.37;49.39;93471.66;4992907;28;20048;-88
2022/06/05 07:22:36;;;;;;;19.10;14.50;;;;;;;22.38;49.49;93453.88;5004360;28;20048;-89
2022/06/05 07:25:01;;;;;;;21.98;15.32;;;;;;;22.37;49.44;93452.38;5040402;28;20052;-89
2022/06/05 07:27:27;;;;;;;19.02;13.13;;;;;;;22.40;49.48;93443.06;5012342;28;20039;-88
2022/06/05 07:29:53;;;;;;;22.52;16.50;;;;;;;22.39;49.37;93447.09;5013196;28;20036;-89
2022/06/05 07:32:18;;;;;;;19.05;14.80;;;;;;;22.39;49.61;93441.56;5012664;28;20087;-88
2022/06/05 07:34:44;;;;;;;15.40;12.82;;;;;;;22.42;49.05;93440.50;5029082;28;20033;-89
2022/06/05 07:37:09;;;;;;;18.63;14.43;;;;;;;22.42;49.22;93446.03;5030931;28;20029;-88
2022/06/05 07:39:35;;;;;;;15.77;13.00;;;;;;;22.40;49.31;93432.03;5049396;28;20032;-88
2022/06/05 07:42:00;;;;;;;18.25;13.70;;;;;;;22.42;49.40;93435.00;5031149;28;20025;-89
2022/06/05 07:44:26;;;;;;;17.20;13.40;;;;;;;22.42;49.27;93440.50;5015417;28;20106;-89
2022/06/05 07:46:51;;;;;;;20.17;14.73;;;;;;;22.44;49.27;93432.44;5003574;28;20040;-88
2022/06/05 07:49:17;;;;;;;19.17;15.02;;;;;;;22.45;49.35;93425.66;5048594;28;20033;-88
2022/06/05 07:54:27;;;;;;;18.67;13.95;;;;;;;22.44;49.45;93415.19;5037245;28;20399;-89
2022/06/05 07:56:52;;;;;;;15.40;12.27;;;;;;;22.44;49.38;93426.19;5015783;28;20562;-88
2022/06/05 07:59:18;;;;;;;18.45;14.32;;;;;;;22.46;49.22;93418.13;5041028;28;20087;-88
2022/06/05 08:01:44;;;;;;;20.52;15.02;;;;;;;22.45;49.34;93417.41;5030556;28;20037;-88
2022/06/05 08:04:10;;;;;;;18.17;13.25;;;;;;;22.46;49.31;93415.38;5048077;28;20044;-88
2022/06/05 08:06:35;;;;;;;17.05;12.77;;;;;;;22.46;49.38;93418.88;5031900;28;20071;-89
2022/06/05 08:09:02;;;;;;;17.73;14.10;;;;;;;22.45;49.32;93422.16;5047549;28;20747;-88
2022/06/05 08:11:28;;;;;;;18.25;13.10;;;;;;;22.46;49.33;93407.13;5024382;28;20072;-89
2022/06/05 08:13:53;;;;;;;21.05;16.40;;;;;;;22.45;49.20;93414.66;5035757;28;20028;-89
2022/06/05 08:16:18;;;;;;;17.25;13.63;;;;;;;22.46;49.42;93412.63;5035160;28;20040;-89
2022/06/05 08:18:44;;;;;;;21.67;17.02;;;;;;;22.44;49.40;93402.16;5052424;28;20041;-89
2022/06/05 08:21:09;;;;;;;17.92;13.40;;;;;;;22.43;49.32;93408.94;5033416;28;20033;-88
2022/06/05 08:23:35;;;;;;;23.95;18.40;;;;;;;22.45;49.16;93405.66;5018966;28;20028;-88
2022/06/05 08:26:01;;;;;;;19.45;15.60;;;;;;;22.44;49.27;93404.91;5036108;28;20380;-88
2022/06/05 08:28:27;;;;;;;22.15;16.15;;;;;;;22.47;49.13;93403.09;5035255;28;20467;-89
2022/06/05 08:30:52;;;;;;;19.10;14.88;;;;;;;22.46;49.32;93399.59;5019383;28;20052;-89
2022/06/05 08:33:18;;;;;;;19.27;14.35;;;;;;;22.47;49.27;93403.84;5034702;28;20033;-89
2022/06/05 08:35:49;;;;;;;20.20;15.90;;;;;;;22.45;49.31;93398.13;5035357;28;20106;-88
2022/06/05 08:41:29;;;;;;;19.08;14.02;;;;;;;22.46;49.29;93393.34;5041234;28;20043;-88
2022/06/05 08:44:19;;;;;;;19.75;15.75;;;;;;;22.44;49.52;93404.91;5041678;28;20033;-89
2022/06/05 08:46:58;;;;;;;22.20;16.67;;;;;;;22.44;49.25;93393.88;5038583;28;20037;-89
2022/06/05 08:49:31;;;;;;;22.83;17.75;;;;;;;22.46;49.35;93391.34;5015492;28;20668;-89
2022/06/05 08:52:03;;;;;;;21.35;16.67;;;;;;;22.46;49.45;93391.34;4999199;28;20123;-89
2022/06/05 08:54:39;;;;;;;24.67;17.73;;;;;;;22.45;49.47;93395.38;5015530;28;20532;-88
2022/06/05 08:57:11;;;;;;;21.35;16.02;;;;;;;22.46;49.50;93401.63;5015097;28;20071;-89
2022/06/05 08:59:43;;;;;;;19.02;15.18;;;;;;;22.47;49.30;93397.59;5019717;28;20052;-88
2022/06/05 09:02:35;;;;;;;20.15;15.48;;;;;;;22.46;49.51;93407.88;5014503;28;20436;-88
2022/06/05 09:05:20;;;;;;;16.70;12.70;;;;;;;22.47;49.42;93400.34;5034597;28;20037;-89
2022/06/05 09:07:54;;;;;;;18.08;14.45;;;;;;;22.46;49.27;93404.38;5034319;28;20045;-89
2022/06/05 09:10:39;;;;;;;19.67;14.93;;;;;;;22.44;49.57;93399.41;5016943;28;20033;-88
2022/06/05 09:13:17;;;;;;;16.02;13.10;;;;;;;22.46;49.49;93410.63;5051072;28;20407;-88
2022/06/05 09:15:51;;;;;;;21.58;16.67;;;;;;;22.45;49.52;93402.88;5051686;28;20110;-88
2022/06/05 09:18:19;;;;;;;22.25;16.52;;;;;;;22.46;49.19;93398.84;5010236;28;20060;-89
2022/06/05 09:20:47;;;;;;;18.83;14.95;;;;;;;22.46;49.28;93401.63;5017664;28;20052;-88
2022/06/05 09:23:36;;;;;;;19.38;14.45;;;;;;;22.43;49.57;93392.41;5031844;28;20043;-89
2022/06/05 09:26:16;;;;;;;21.52;15.98;;;;;;;22.43;49.63;93383.41;5047283;28;20048;-89
2022/06/05 09:29:19;;;;;;;17.95;14.68;;;;;;;22.42;49.65;93390.94;5047989;28;20037;-88
2022/06/05 09:31:57;;;;;;;18.90;13.88;;;;;;;22.43;49.59;93397.19;5048060;28;20036;-89
2022/06/05 09:34:29;;;;;;;16.88;12.85;;;;;;;22.44;49.53;93399.41;5047020;28;20048;-89
2022/06/05 09:37:09;;;;;;;14.65;12.05;;;;;;;22.43;49.48;93399.94;5031235;28;20037;-89
2022/06/05 09:39:54;;;;;;;17.48;13.32;;;;;;;22.46;49.57;93379.56;5014314;28;20064;-89
2022/06/05 09:42:38;;;;;;;18.63;13.65;;;;;;;22.44;49.51;93395.91;5030815;28;20109;-89
2022/06/05 09:45:30;;;;;;;17.33;13.55;;;;;;;22.46;49.54;93393.34;5047018;28;20040;-88
2022/06/05 09:48:12;;;;;;;16.70;12.80;;;;;;;22.45;49.66;93392.59;5052998;28;20111;-89
2022/06/05 09:50:37;;;;;;;15.77;11.90;;;;;;;22.46;49.50;93387.84;5034460;28;20036;-89
2022/06/05 09:53:03;;;;;;;14.10;11.05;;;;;;;22.48;49.51;93371.50;5030172;28;20067;-89
2022/06/05 09:55:49;;;;;;;15.05;12.45;;;;;;;22.45;49.48;93376.09;5031069;28;20063;-89
2022/06/05 09:58:39;;;;;;;15.30;12.52;;;;;;;22.45;49.63;93367.06;5045470;28;20033;-89
2022/06/05 10:01:23;;;;;;;14.35;11.07;;;;;;;22.45;49.65;93367.06;5030638;28;20041;-88
2022/06/05 10:03:49;;;;;;;14.40;11.32;;;;;;;22.46;49.66;93361.03;5039650;28;20041;-89
2022/06/05 10:06:14;;;;;;;15.32;11.75;;;;;;;22.46;49.50;93350.00;5033283;28;20040;-88
2022/06/05 10:08:42;;;;;;;13.57;11.05;;;;;;;22.47;49.63;93348.75;5049180;28;20044;-88
2022/06/05 10:11:26;;;;;;;13.55;11.35;;;;;;;22.45;49.57;93359.56;5015720;28;20048;-89
2022/06/05 10:13:57;;;;;;;13.13;10.90;;;;;;;22.46;49.88;93354.78;5023677;28;20025;-88
2022/06/05 10:16:28;;;;;;;13.55;11.00;;;;;;;22.46;49.75;93336.25;5050134;28;20090;-89
2022/06/05 10:19:03;;;;;;;13.30;10.38;;;;;;;22.46;49.75;93341.75;5033807;28;20036;-88
2022/06/05 10:21:37;;;;;;;13.43;10.95;;;;;;;22.47;49.65;93345.97;5033913;28;20048;-88
2022/06/05 10:24:03;;;;;;;14.23;11.05;;;;;;;22.48;49.68;93339.19;5033380;28;20063;-87
2022/06/05 10:26:31;;;;;;;13.45;10.35;;;;;;;22.49;49.79;93339.94;5030598;28;20072;-88
2022/06/05 10:29:30;;;;;;;12.32;10.35;;;;;;;22.46;49.81;93333.50;4993738;28;20488;-88
2022/06/05 10:32:05;;;;;;;14.63;11.20;;;;;;;22.45;49.83;93323.75;5010288;28;20512;-89
2022/06/05 10:34:37;;;;;;;15.85;11.77;;;;;;;22.47;49.69;93334.97;5009635;28;20041;-88
2022/06/05 10:37:26;;;;;;;13.15;9.73;;;;;;;22.45;49.69;93334.03;5010320;28;20661;-88
2022/06/05 10:40:22;;;;;;;14.55;11.38;;;;;;;22.46;49.87;93339.00;5027821;28;20048;-89
2022/06/05 10:43:01;;;;;;;15.55;11.32;;;;;;;22.46;49.72;93341.00;5026690;28;20060;-88
2022/06/05 10:45:47;;;;;;;14.55;10.50;;;;;;;22.45;49.75;93332.00;5027668;28;20037;-88
2022/06/05 10:48:31;;;;;;;13.88;10.35;;;;;;;22.45;49.69;93334.75;5027097;28;20038;-88
2022/06/05 10:51:02;;;;;;;12.50;9.52;;;;;;;22.47;49.99;93334.22;5006485;28;20045;-88
2022/06/05 10:53:29;;;;;;;13.30;10.18;;;;;;;22.48;49.93;93335.69;5006247;28;20026;-88
2022/06/05 10:56:22;;;;;;;14.38;11.60;;;;;;;22.45;49.89;93326.50;5007221;28;20038;-87
2022/06/05 10:59:05;;;;;;;15.32;11.23;;;;;;;22.46;49.88;93339.00;5009550;28;20034;-88
2022/06/05 11:02:10;;;;;;;14.30;10.60;;;;;;;22.46;49.89;93341.75;4989056;28;20308;-88
2022/06/05 11:05:00;;;;;;;13.18;10.77;;;;;;;22.47;49.88;93334.97;5026226;28;20492;-88
2022/06/05 11:07:47;;;;;;;15.50;11.45;;;;;;;22.47;49.80;93340.47;4992380;28;20459;-89
2022/06/05 11:10:13;;;;;;;15.77;10.35;;;;;;;22.49;49.91;93339.94;5007026;28;20452;-89
2022/06/05 11:15:39;;;;;;;13.93;10.73;;;;;;;22.47;49.75;93343.22;5012593;28;20095;-89
2022/06/05 11:18:26;;;;;;;14.52;11.60;;;;;;;22.47;49.76;93345.25;5003569;28;20038;-88
2022/06/05 11:20:55;;;;;;;13.20;10.95;;;;;;;22.49;49.82;93337.19;5007354;28;20049;-89
2022/06/05 11:23:24;;;;;;;10.85;8.98;;;;;;;22.49;49.76;93334.44;4999350;28;20038;-88
2022/06/05 11:26:05;;;;;;;12.88;10.05;;;;;;;22.48;49.93;93332.94;5010032;28;20060;-88
2022/06/05 11:28:52;;;;;;;12.73;10.50;;;;;;;22.48;50.08;93319.19;5008754;28;20113;-89
2022/06/05 11:31:26;;;;;;;15.52;11.70;;;;;;;22.48;49.99;93319.91;5026306;28;20041;-88
2022/06/05 11:34:22;;;;;;;13.35;9.98;;;;;;;22.47;49.80;93312.19;5027198;28;20042;-89
2022/06/05 11:36:50;;;;;;;14.13;11.48;;;;;;;22.49;50.20;93309.63;5022187;28;20038;-89
2022/06/05 11:39:42;;;;;;;11.95;9.40;;;;;;;22.47;49.84;93309.44;4989794;28;20042;-88
2022/06/05 11:42:17;;;;;;;11.98;9.75;;;;;;;22.48;49.93;93308.16;4989275;28;20099;-88
2022/06/05 11:44:51;;;;;;;11.30;9.73;;;;;;;22.49;50.05;93312.38;4989507;28;20612;-88
2022/06/05 11:47:35;;;;;;;12.00;9.98;;;;;;;22.48;49.99;93294.38;5014429;28;20042;-88
2022/06/05 11:50:22;;;;;;;12.68;10.02;;;;;;;22.48;49.95;93299.88;4997930;28;20033;-88